createdAt,value
2022-10-08T00:01:32.552Z,99.90
2022-10-08T00:04:01.071Z,99.90
2022-10-08T00:06:31.614Z,99.90
2022-10-08T00:09:02.873Z,99.90
2022-10-08T00:11:34.542Z,99.90
2022-10-08T00:14:04.032Z,99.90
2022-10-08T00:16:35.745Z,99.90
2022-10-08T00:19:07.770Z,99.90
2022-10-08T00:21:38.686Z,99.90
2022-10-08T00:24:09.221Z,99.90
2022-10-08T00:26:42.779Z,99.90
2022-10-08T00:29:09.587Z,99.90
2022-10-08T00:31:40.683Z,99.90
2022-10-08T00:34:14.892Z,99.90
2022-10-08T00:36:43.787Z,99.90
2022-10-08T00:39:17.825Z,99.90
2022-10-08T00:41:49.051Z,99.90
2022-10-08T00:44:45.852Z,99.90
2022-10-08T00:47:26.203Z,99.90
2022-10-08T00:49:57.604Z,99.90
2022-10-08T00:52:28.897Z,99.90
2022-10-08T00:54:58.776Z,99.90
2022-10-08T00:57:27.977Z,99.90
2022-10-08T00:59:56.961Z,99.90
2022-10-08T01:02:25.496Z,99.90
2022-10-08T01:04:53.967Z,99.90
2022-10-08T01:07:25.537Z,99.90
2022-10-08T01:10:13.533Z,99.90
2022-10-08T01:12:45.714Z,99.90
2022-10-08T01:15:23.309Z,99.90
2022-10-08T01:18:00.514Z,99.90
2022-10-08T01:20:46.901Z,99.90
2022-10-08T01:23:41.700Z,99.90
2022-10-08T01:26:29.730Z,99.90
2022-10-08T01:29:09.900Z,99.90
2022-10-08T01:31:47.323Z,99.90
2022-10-08T01:34:30.640Z,99.90
2022-10-08T01:37:01.808Z,99.90
2022-10-08T01:39:33.608Z,99.90
2022-10-08T01:42:04.712Z,99.90
2022-10-08T01:44:36.805Z,99.90
2022-10-08T01:47:08.314Z,99.90
2022-10-08T01:49:43.743Z,99.90
2022-10-08T01:52:15.249Z,99.90
2022-10-08T01:54:45.727Z,99.90
2022-10-08T01:57:14.720Z,99.90
2022-10-08T01:59:46.333Z,99.90
2022-10-08T02:02:25.862Z,99.90
2022-10-08T02:04:56.783Z,99.90
2022-10-08T02:07:31.057Z,99.90
2022-10-08T02:10:08.430Z,99.90
2022-10-08T02:12:38.596Z,99.90
2022-10-08T02:15:10.338Z,99.90
2022-10-08T02:18:07.340Z,99.90
2022-10-08T02:20:44.567Z,99.90
2022-10-08T02:23:29.020Z,99.90
2022-10-08T02:26:13.370Z,99.90
2022-10-08T02:29:00.102Z,99.90
2022-10-08T02:31:57.726Z,99.90
2022-10-08T02:34:48.530Z,99.90
2022-10-08T02:37:22.952Z,99.90
2022-10-08T02:40:03.206Z,99.90
2022-10-08T02:42:33.588Z,99.90
2022-10-08T02:45:14.057Z,99.90
2022-10-08T02:47:45.362Z,99.90
2022-10-08T02:50:16.330Z,99.90
2022-10-08T02:52:46.954Z,99.90
2022-10-08T02:55:30.169Z,99.90
2022-10-08T02:58:01.803Z,99.90
2022-10-08T03:00:35.159Z,99.90
2022-10-08T03:03:09.458Z,99.90
2022-10-08T03:05:39.689Z,99.90
2022-10-08T03:08:11.253Z,99.90
2022-10-08T03:10:41.630Z,99.90
2022-10-08T03:13:11.421Z,99.90
2022-10-08T03:15:42.227Z,99.90
2022-10-08T03:18:12.919Z,99.90
2022-10-08T03:20:47.346Z,99.90
2022-10-08T03:23:18.427Z,99.90
2022-10-08T03:25:46.891Z,99.90
2022-10-08T03:28:15.415Z,99.90
2022-10-08T03:30:43.921Z,99.90
2022-10-08T03:33:12.410Z,99.90
2022-10-08T03:35:48.553Z,99.90
2022-10-08T03:38:17.552Z,99.90
2022-10-08T03:40:49.182Z,99.90
2022-10-08T03:43:18.127Z,99.90
2022-10-08T03:45:53.906Z,99.90
2022-10-08T03:48:23.785Z,99.90
2022-10-08T03:50:57.875Z,99.90
2022-10-08T03:53:27.869Z,99.90
2022-10-08T03:55:56.355Z,99.90
2022-10-08T03:58:24.897Z,99.90
2022-10-08T04:01:00.825Z,99.90
2022-10-08T04:03:31.066Z,99.90
2022-10-08T04:06:00.410Z,99.90
2022-10-08T04:08:29.251Z,99.90
2022-10-08T04:10:57.842Z,99.90
2022-10-08T04:13:26.395Z,99.90
2022-10-08T04:15:56.587Z,99.90
2022-10-08T04:18:25.116Z,99.90
2022-10-08T04:20:58.973Z,99.90
2022-10-08T04:23:28.476Z,99.90
2022-10-08T04:25:59.881Z,99.90
2022-10-08T04:28:29.477Z,99.90
2022-10-08T04:31:03.104Z,99.90
2022-10-08T04:33:33.854Z,99.90
2022-10-08T04:36:02.659Z,99.90
2022-10-08T04:38:31.123Z,99.90
2022-10-08T04:41:04.885Z,99.90
2022-10-08T04:43:34.302Z,99.90
2022-10-08T04:46:02.983Z,99.90
2022-10-08T04:48:31.528Z,99.90
2022-10-08T04:51:04.083Z,99.90
2022-10-08T04:53:32.697Z,99.90
2022-10-08T04:56:09.612Z,99.90
2022-10-08T04:58:38.076Z,99.90
2022-10-08T05:01:08.493Z,99.90
2022-10-08T05:03:38.802Z,99.90
2022-10-08T05:06:08.525Z,99.90
2022-10-08T05:08:37.142Z,99.90
2022-10-08T05:11:05.858Z,99.90
2022-10-08T05:13:34.656Z,99.90
2022-10-08T05:16:12.344Z,99.90
2022-10-08T05:18:42.250Z,99.90
2022-10-08T05:21:13.634Z,99.90
2022-10-08T05:23:45.466Z,99.90
2022-10-08T05:26:35.925Z,99.90
2022-10-08T05:28:55.963Z,99.90
2022-10-08T05:31:26.260Z,99.90
2022-10-08T05:33:55.095Z,99.90
2022-10-08T05:36:29.153Z,99.90
2022-10-08T05:38:59.616Z,99.90
2022-10-08T05:41:30.048Z,99.90
2022-10-08T05:44:01.296Z,99.90
2022-10-08T05:46:31.134Z,99.90
2022-10-08T05:49:02.183Z,99.90
2022-10-08T05:51:31.347Z,99.90
2022-10-08T05:54:00.832Z,99.90
2022-10-08T05:56:31.575Z,99.90
2022-10-08T05:59:00.391Z,99.90
2022-10-08T06:01:31.481Z,99.90
2022-10-08T06:04:08.036Z,99.90
2022-10-08T06:06:33.096Z,99.90
2022-10-08T06:09:02.480Z,99.90
2022-10-08T06:11:33.193Z,99.90
2022-10-08T06:14:02.718Z,99.90
2022-10-08T06:16:32.047Z,99.90
2022-10-08T06:19:02.083Z,99.90
2022-10-08T06:21:31.255Z,99.90
2022-10-08T06:24:02.386Z,99.90
2022-10-08T06:26:36.001Z,99.90
2022-10-08T06:29:05.961Z,99.90
2022-10-08T06:31:36.038Z,99.90
2022-10-08T06:34:05.452Z,99.90
2022-10-08T06:36:36.601Z,99.90
2022-10-08T06:39:08.404Z,99.90
2022-10-08T06:41:37.135Z,99.90
2022-10-08T06:44:08.097Z,99.90
2022-10-08T06:46:36.867Z,99.90
2022-10-08T06:49:08.533Z,99.90
2022-10-08T06:51:37.101Z,99.90
2022-10-08T06:54:08.214Z,99.90
2022-10-08T06:56:37.824Z,99.90
2022-10-08T06:59:07.496Z,99.90
2022-10-08T07:01:36.428Z,99.90
2022-10-08T07:04:06.669Z,99.90
2022-10-08T07:06:35.646Z,99.90
2022-10-08T07:09:06.992Z,99.90
2022-10-08T07:11:35.784Z,99.90
2022-10-08T07:14:04.308Z,99.90
2022-10-08T07:16:32.906Z,99.90
2022-10-08T07:19:02.134Z,99.90
2022-10-08T07:21:31.420Z,99.90
2022-10-08T07:24:01.688Z,99.90
2022-10-08T07:26:33.114Z,99.90
2022-10-08T07:29:04.258Z,99.90
2022-10-08T07:31:36.231Z,99.90
2022-10-08T07:34:10.756Z,99.90
2022-10-08T07:36:40.302Z,99.90
2022-10-08T07:39:11.365Z,99.90
2022-10-08T07:41:39.887Z,99.90
2022-10-08T07:44:08.680Z,99.90
2022-10-08T07:46:39.765Z,99.90
2022-10-08T07:49:08.315Z,99.90
2022-10-08T07:51:36.923Z,99.90
2022-10-08T07:54:08.606Z,99.90
2022-10-08T07:56:37.667Z,99.90
2022-10-08T07:59:06.818Z,99.90
2022-10-08T08:01:35.413Z,99.90
2022-10-08T08:04:06.494Z,99.90
2022-10-08T08:06:41.034Z,99.90
2022-10-08T08:09:11.018Z,99.90
2022-10-08T08:11:40.201Z,99.90
2022-10-08T08:14:08.726Z,99.90
2022-10-08T08:16:37.328Z,99.90
2022-10-08T08:19:05.964Z,99.90
2022-10-08T08:21:37.154Z,99.90
2022-10-08T08:24:08.408Z,99.90
2022-10-08T08:26:38.797Z,99.90
2022-10-08T08:29:10.959Z,99.90
2022-10-08T08:31:43.343Z,99.90
2022-10-08T08:34:15.153Z,99.90
2022-10-08T08:36:46.146Z,99.90
2022-10-08T08:39:19.900Z,99.90
2022-10-08T08:41:57.084Z,99.90
2022-10-08T08:44:37.200Z,99.90
2022-10-08T08:47:17.893Z,99.90
2022-10-08T08:50:04.374Z,99.90
2022-10-08T08:52:35.958Z,99.90
2022-10-08T08:55:07.465Z,99.90
2022-10-08T08:57:39.056Z,99.90
2022-10-08T09:00:16.813Z,99.90
2022-10-08T09:03:00.346Z,99.90
2022-10-08T09:05:32.489Z,99.90
2022-10-08T09:08:05.742Z,99.90
2022-10-08T09:10:40.225Z,99.90
2022-10-08T09:13:21.048Z,99.90
2022-10-08T09:15:49.513Z,99.90
2022-10-08T09:18:18.390Z,99.90
2022-10-08T09:20:47.112Z,99.90
2022-10-08T09:23:18.921Z,99.90
2022-10-08T09:26:05.260Z,99.90
2022-10-08T09:28:54.680Z,99.90
2022-10-08T09:31:32.378Z,99.90
2022-10-08T09:34:06.658Z,99.90
2022-10-08T09:36:41.163Z,99.90
2022-10-08T09:39:24.448Z,99.90
2022-10-08T09:42:10.912Z,99.90
2022-10-08T09:44:55.457Z,99.90
2022-10-08T09:47:26.694Z,99.90
2022-10-08T09:50:07.356Z,99.90
2022-10-08T09:52:37.067Z,99.90
2022-10-08T09:55:23.773Z,99.90
2022-10-08T09:57:55.345Z,99.90
2022-10-08T10:00:29.773Z,99.90
2022-10-08T10:03:00.707Z,99.90
2022-10-08T10:05:32.041Z,99.90
2022-10-08T10:08:00.888Z,99.90
2022-10-08T10:10:41.183Z,99.90
2022-10-08T10:13:15.504Z,99.90
2022-10-08T10:16:07.871Z,99.90
2022-10-08T10:18:51.492Z,99.90
2022-10-08T10:21:23.033Z,99.90
2022-10-08T10:24:06.207Z,99.90
2022-10-08T10:26:37.840Z,99.90
2022-10-08T10:29:09.466Z,99.90
2022-10-08T10:31:59.960Z,99.90
2022-10-08T10:34:34.820Z,99.90
2022-10-08T10:37:18.457Z,99.90
2022-10-08T10:39:57.541Z,99.90
2022-10-08T10:42:29.102Z,99.90
2022-10-08T10:45:04.237Z,99.90
2022-10-08T10:47:33.909Z,99.90
2022-10-08T10:50:03.563Z,99.90
2022-10-08T10:52:35.152Z,99.90
2022-10-08T10:55:25.952Z,99.90
2022-10-08T10:58:10.682Z,99.90
2022-10-08T11:01:01.831Z,99.90
2022-10-08T11:03:49.799Z,99.90
2022-10-08T11:06:38.271Z,99.90
2022-10-08T11:09:33.025Z,99.90
2022-10-08T11:12:07.593Z,99.90
2022-10-08T11:14:47.874Z,99.90
2022-10-08T11:17:36.202Z,99.90
2022-10-08T11:20:27.250Z,99.90
2022-10-08T11:22:58.867Z,99.90
2022-10-08T11:26:15.358Z,99.90
2022-10-08T11:28:45.792Z,99.90
2022-10-08T11:31:26.267Z,99.90
2022-10-08T11:33:56.975Z,99.90
2022-10-08T11:36:37.589Z,99.90
2022-10-08T11:39:09.189Z,99.90
2022-10-08T11:41:40.732Z,99.90
2022-10-08T11:44:11.678Z,99.90
2022-10-08T11:46:40.200Z,99.90
2022-10-08T11:49:14.466Z,99.90
2022-10-08T11:51:44.611Z,99.90
2022-10-08T11:54:38.467Z,99.90
2022-10-08T11:57:35.131Z,99.10
2022-10-08T12:00:07.968Z,99.70
2022-10-08T12:02:39.681Z,97.80
2022-10-08T12:05:25.549Z,98.30
2022-10-08T12:07:57.190Z,96.40
2022-10-08T12:10:29.951Z,98.70
2022-10-08T12:13:02.558Z,99.20
2022-10-08T12:15:35.359Z,96.10
2022-10-08T12:18:26.088Z,93.00
2022-10-08T12:21:21.453Z,94.60
2022-10-08T12:23:50.049Z,92.70
2022-10-08T12:26:18.826Z,92.30
2022-10-08T12:28:50.893Z,90.10
2022-10-08T12:31:28.361Z,88.80
2022-10-08T12:33:59.782Z,86.70
2022-10-08T12:36:37.215Z,89.00
2022-10-08T12:39:08.749Z,91.20
2022-10-08T12:41:49.312Z,89.20
2022-10-08T12:44:32.670Z,86.20
2022-10-08T12:47:16.946Z,90.30
2022-10-08T12:50:03.257Z,89.10
2022-10-08T12:52:37.185Z,89.70
2022-10-08T12:55:07.187Z,86.50
2022-10-08T12:57:38.810Z,87.60
2022-10-08T13:00:13.014Z,92.00
2022-10-08T13:02:43.420Z,95.40
2022-10-08T13:05:31.411Z,93.90
2022-10-08T13:08:01.699Z,91.20
2022-10-08T13:10:30.736Z,89.80
2022-10-08T13:13:07.761Z,87.80
2022-10-08T13:15:36.281Z,90.00
2022-10-08T13:18:22.672Z,94.50
2022-10-08T13:21:02.120Z,95.40
2022-10-08T13:23:41.764Z,93.50
2022-10-08T13:26:41.665Z,90.80
2022-10-08T13:29:31.257Z,90.80
2022-10-08T13:32:03.189Z,87.30
2022-10-08T13:34:34.712Z,82.20
2022-10-08T13:37:06.428Z,83.20
2022-10-08T13:39:38.108Z,83.20
2022-10-08T13:42:09.744Z,83.50
2022-10-08T13:44:40.701Z,90.90
2022-10-08T13:47:21.122Z,93.00
2022-10-08T13:49:49.954Z,93.50
2022-10-08T13:52:21.444Z,95.00
2022-10-08T13:54:51.600Z,95.20
2022-10-08T13:57:20.161Z,96.50
2022-10-08T13:59:48.752Z,97.10
2022-10-08T14:02:17.430Z,97.00
2022-10-08T14:04:46.049Z,98.10
2022-10-08T14:07:26.424Z,99.00
2022-10-08T14:09:57.876Z,99.50
2022-10-08T14:12:30.048Z,99.90
2022-10-08T14:14:59.146Z,99.90
2022-10-08T14:17:27.783Z,99.90
2022-10-08T14:19:56.286Z,99.70
2022-10-08T14:22:24.904Z,99.50
2022-10-08T14:24:53.636Z,99.90
2022-10-08T14:27:22.220Z,99.90
2022-10-08T14:29:50.879Z,99.90
2022-10-08T14:32:19.398Z,99.90
2022-10-08T14:34:47.952Z,99.90
2022-10-08T14:37:16.578Z,98.50
2022-10-08T14:39:45.802Z,98.70
2022-10-08T14:42:14.420Z,98.30
2022-10-08T14:44:43.121Z,95.00
2022-10-08T14:47:11.685Z,92.20
2022-10-08T14:49:40.192Z,92.50
2022-10-08T14:52:08.683Z,91.20
2022-10-08T14:54:37.146Z,90.90
2022-10-08T14:57:05.571Z,91.90
2022-10-08T14:59:39.068Z,94.20
2022-10-08T15:02:04.217Z,92.60
2022-10-08T15:04:32.725Z,93.40
2022-10-08T15:07:01.153Z,93.10
2022-10-08T15:09:31.177Z,93.40
2022-10-08T15:11:59.733Z,95.20
2022-10-08T15:14:28.208Z,93.30
2022-10-08T15:16:57.661Z,93.20
2022-10-08T15:19:26.243Z,97.10
2022-10-08T15:21:54.772Z,94.60
2022-10-08T15:24:23.320Z,93.90
2022-10-08T15:26:51.788Z,93.90
2022-10-08T15:29:20.285Z,94.40
2022-10-08T15:31:51.156Z,94.90
2022-10-08T15:34:21.013Z,93.70
2022-10-08T15:36:49.743Z,93.20
2022-10-08T15:39:20.044Z,93.60
2022-10-08T15:41:50.234Z,94.00
2022-10-08T15:44:21.595Z,93.70
2022-10-08T15:46:55.910Z,93.80
2022-10-08T15:49:23.001Z,93.60
2022-10-08T15:51:51.500Z,93.80
2022-10-08T15:54:21.013Z,94.10
2022-10-08T15:56:49.537Z,95.20
2022-10-08T15:59:18.170Z,95.10
2022-10-08T16:01:46.628Z,95.30
2022-10-08T16:04:15.347Z,97.00
2022-10-08T16:06:46.919Z,98.30
2022-10-08T16:09:17.808Z,99.90
2022-10-08T16:11:47.450Z,99.90
2022-10-08T16:14:18.664Z,99.90
2022-10-08T16:16:47.836Z,99.90
2022-10-08T16:19:21.574Z,99.90
2022-10-08T16:21:52.266Z,99.90
2022-10-08T16:24:21.516Z,99.90
2022-10-08T16:26:50.211Z,99.90
2022-10-08T16:29:19.304Z,99.90
2022-10-08T16:31:48.463Z,99.90
2022-10-08T16:34:22.121Z,99.90
2022-10-08T16:36:51.301Z,99.90
2022-10-08T16:39:23.715Z,99.90
2022-10-08T16:41:52.481Z,99.90
2022-10-08T16:44:22.451Z,99.90
2022-10-08T16:46:52.895Z,99.90
2022-10-08T16:49:27.131Z,99.90
2022-10-08T16:51:58.601Z,99.90
2022-10-08T16:54:27.965Z,99.90
2022-10-08T16:56:57.262Z,99.90
2022-10-08T16:59:30.017Z,99.90
2022-10-08T17:02:00.317Z,99.90
2022-10-08T17:04:31.890Z,99.90
2022-10-08T17:07:00.374Z,99.90
2022-10-08T17:09:28.866Z,99.90
2022-10-08T17:11:57.441Z,99.90
2022-10-08T17:14:25.983Z,99.90
2022-10-08T17:16:54.775Z,99.90
2022-10-08T17:19:23.319Z,99.90
2022-10-08T17:21:51.794Z,99.90
2022-10-08T17:24:20.338Z,99.90
2022-10-08T17:26:49.862Z,99.90
2022-10-08T17:29:18.387Z,99.90
2022-10-08T17:31:47.007Z,99.90
2022-10-08T17:34:15.467Z,99.90
2022-10-08T17:36:44.421Z,99.90
2022-10-08T17:39:14.632Z,99.90
2022-10-08T17:41:44.209Z,99.90
2022-10-08T17:44:12.775Z,99.90
2022-10-08T17:46:45.554Z,99.90
2022-10-08T17:49:16.758Z,99.90
2022-10-08T17:51:46.013Z,99.90
2022-10-08T17:54:19.129Z,99.90
2022-10-08T17:56:48.718Z,99.90
2022-10-08T17:59:20.109Z,99.90
2022-10-08T18:01:48.709Z,99.90
2022-10-08T18:04:18.737Z,99.90
2022-10-08T18:06:48.639Z,99.90
2022-10-08T18:09:20.219Z,99.90
2022-10-08T18:11:52.078Z,99.90
2022-10-08T18:14:22.030Z,99.90
2022-10-08T18:16:50.769Z,99.90
2022-10-08T18:19:19.791Z,99.90
2022-10-08T18:21:48.349Z,99.90
2022-10-08T18:24:17.948Z,99.90
2022-10-08T18:26:46.915Z,99.90
2022-10-08T18:29:16.460Z,99.90
2022-10-08T18:31:46.570Z,99.90
2022-10-08T18:34:17.588Z,99.90
2022-10-08T18:36:47.437Z,99.90
2022-10-08T18:39:18.537Z,99.90
2022-10-08T18:41:49.001Z,99.90
2022-10-08T18:44:21.142Z,99.90
2022-10-08T18:46:50.993Z,99.90
2022-10-08T18:49:23.395Z,99.90
2022-10-08T18:51:51.976Z,99.90
2022-10-08T18:54:20.888Z,99.90
2022-10-08T18:56:49.357Z,99.90
2022-10-08T18:59:18.684Z,99.90
2022-10-08T19:01:48.172Z,99.90
2022-10-08T19:04:19.809Z,99.90
2022-10-08T19:06:49.915Z,99.90
2022-10-08T19:09:18.515Z,99.90
2022-10-08T19:11:52.198Z,99.90
2022-10-08T19:14:22.968Z,99.90
2022-10-08T19:16:51.977Z,99.90
2022-10-08T19:19:22.422Z,99.90
2022-10-08T19:21:51.967Z,99.90
2022-10-08T19:24:23.532Z,99.90
2022-10-08T19:26:53.110Z,99.90
2022-10-08T19:29:29.006Z,99.90
2022-10-08T19:31:58.147Z,99.90
2022-10-08T19:34:28.427Z,99.90
2022-10-08T19:36:57.444Z,99.90
2022-10-08T19:39:28.815Z,99.90
2022-10-08T19:41:57.720Z,99.90
2022-10-08T19:44:26.212Z,99.90
2022-10-08T19:46:54.779Z,99.90
2022-10-08T19:49:23.585Z,99.90
2022-10-08T19:51:53.558Z,99.90
2022-10-08T19:54:22.010Z,99.90
2022-10-08T19:56:50.642Z,99.90
2022-10-08T19:59:19.243Z,99.90
2022-10-08T20:01:47.760Z,99.90
2022-10-08T20:04:16.775Z,99.90
2022-10-08T20:06:45.436Z,99.90
2022-10-08T20:09:14.752Z,99.90
2022-10-08T20:11:45.203Z,99.90
2022-10-08T20:14:15.172Z,99.90
2022-10-08T20:16:44.442Z,99.90
2022-10-08T20:19:19.454Z,99.90
2022-10-08T20:21:50.134Z,99.90
2022-10-08T20:24:19.250Z,99.90
2022-10-08T20:26:49.179Z,99.90
2022-10-08T20:29:20.675Z,99.90
2022-10-08T20:31:53.482Z,99.90
2022-10-08T20:34:28.608Z,99.90
2022-10-08T20:36:58.950Z,99.90
2022-10-08T20:39:28.476Z,99.90
2022-10-08T20:41:58.192Z,99.90
2022-10-08T20:44:28.314Z,99.90
2022-10-08T20:46:56.834Z,99.90
2022-10-08T20:49:25.737Z,99.90
2022-10-08T20:51:54.228Z,99.90
2022-10-08T20:54:22.802Z,99.90
2022-10-08T20:56:51.299Z,99.90
2022-10-08T20:59:20.431Z,99.90
2022-10-08T21:01:50.659Z,99.90
2022-10-08T21:04:20.393Z,99.90
2022-10-08T21:06:50.793Z,99.90
2022-10-08T21:09:21.333Z,99.90
2022-10-08T21:11:49.999Z,99.90
2022-10-08T21:14:22.947Z,99.90
2022-10-08T21:16:53.342Z,99.90
2022-10-08T21:19:22.127Z,99.90
2022-10-08T21:21:50.744Z,99.90
2022-10-08T21:24:19.285Z,99.90
2022-10-08T21:26:47.897Z,99.90
2022-10-08T21:29:16.373Z,99.90
2022-10-08T21:31:44.978Z,99.90
2022-10-08T21:34:14.177Z,99.90
2022-10-08T21:36:44.456Z,99.90
2022-10-08T21:39:15.867Z,99.90
2022-10-08T21:41:44.739Z,99.90
2022-10-08T21:44:13.373Z,99.90
2022-10-08T21:46:43.403Z,99.90
2022-10-08T21:49:17.644Z,99.90
2022-10-08T21:51:46.251Z,99.90
2022-10-08T21:54:26.655Z,99.90
2022-10-08T21:56:56.461Z,99.90
2022-10-08T21:59:26.470Z,99.90
2022-10-08T22:01:55.045Z,99.90
2022-10-08T22:04:25.813Z,99.90
2022-10-08T22:06:58.525Z,99.90
2022-10-08T22:09:32.210Z,99.90
2022-10-08T22:12:01.693Z,99.90
2022-10-08T22:14:30.694Z,99.90
2022-10-08T22:16:59.226Z,99.90
2022-10-08T22:19:27.863Z,99.90
2022-10-08T22:21:56.390Z,99.90
2022-10-08T22:24:24.915Z,99.90
2022-10-08T22:26:53.346Z,99.90
2022-10-08T22:29:21.893Z,99.90
2022-10-08T22:31:50.500Z,99.90
2022-10-08T22:34:19.065Z,99.90
2022-10-08T22:36:47.526Z,99.90
2022-10-08T22:39:15.992Z,99.90
2022-10-08T22:41:44.704Z,99.90
2022-10-08T22:44:13.221Z,99.90
2022-10-08T22:46:41.767Z,99.90
2022-10-08T22:49:12.349Z,99.90
2022-10-08T22:51:41.366Z,99.90
2022-10-08T22:54:10.342Z,99.90
2022-10-08T22:56:38.959Z,99.90
2022-10-08T22:59:07.521Z,99.90
2022-10-08T23:01:36.210Z,99.90
2022-10-08T23:04:04.667Z,99.90
2022-10-08T23:06:34.981Z,99.90
2022-10-08T23:09:06.533Z,99.90
2022-10-08T23:11:35.509Z,99.90
2022-10-08T23:14:05.010Z,99.90
2022-10-08T23:16:34.591Z,99.90
2022-10-08T23:19:06.263Z,99.90
2022-10-08T23:21:35.889Z,99.90
2022-10-08T23:24:04.823Z,99.90
2022-10-08T23:26:33.459Z,99.90
2022-10-08T23:29:03.181Z,99.90
2022-10-08T23:31:34.080Z,99.90
2022-10-08T23:34:03.299Z,99.90
2022-10-08T23:36:34.517Z,99.90
2022-10-08T23:39:03.522Z,99.90
2022-10-08T23:41:32.182Z,99.90
2022-10-08T23:44:00.634Z,99.90
2022-10-08T23:46:30.905Z,99.90
2022-10-08T23:49:00.201Z,99.90
2022-10-08T23:51:31.447Z,99.90
2022-10-08T23:54:01.346Z,99.90
2022-10-08T23:56:30.260Z,99.90
2022-10-08T23:58:59.482Z,99.90
